Terminal Aerodrome Forecast
Issued by NWS

Home | Current Version | Previous Version | Text Only | Print | Product List | Glossary On
Versions: 1 2 3 4 5 6 7 8 9 10 11 12 13 14 15 16 17 18 19 20 21
000
FTUS41 KBOX 241458 AAC
TAFACK
TAF AMD
KACK 241458Z 2415/2512 04010KT P6SM BKN005
     FM241800 03009KT P6SM SCT003
     FM242000 03008KT P6SM SCT010
     FM250000 04006KT 6SM BR SCT200
     FM250600 05004KT 1/4SM FG BKN003=

USA.gov is the U.S. government's official web portal to all federal, state and local government web resources and services.